Time;durP1;ratioP1;P1;durP2;ratioP2;P2;SDS_P1;SDS_P2;PMS_P1;PMS_P2;Temp;Humidity;BMP_temperature;BMP_pressure;BME280_temperature;BME280_humidity;BME280_pressure;Samples;Min_cycle;Max_cycle;Signal;HPM_P1;HPM_P2
2023/08/02 00:02:26;;;;;;;9.67;9.37;;;14.90;99.90;;;;;;6259314;22;20187;-86
2023/08/02 00:04:53;;;;;;;9.50;9.20;;;14.80;99.90;;;;;;6260278;22;20190;-86
2023/08/02 00:07:20;;;;;;;9.77;9.48;;;14.80;99.90;;;;;;6261928;22;20203;-86
2023/08/02 00:09:49;;;;;;;9.50;9.20;;;14.70;99.90;;;;;;6260584;22;20194;-85
2023/08/02 00:12:17;;;;;;;9.70;9.40;;;14.70;99.90;;;;;;6259581;22;20217;-86
2023/08/02 00:14:45;;;;;;;9.67;9.37;;;14.70;99.90;;;;;;6259744;22;20293;-86
2023/08/02 00:17:12;;;;;;;9.50;9.20;;;14.70;99.90;;;;;;6259323;22;20562;-86
2023/08/02 00:19:39;;;;;;;9.10;8.80;;;14.60;99.90;;;;;;6258812;22;20257;-86
2023/08/02 00:22:07;;;;;;;9.50;9.20;;;14.60;99.90;;;;;;6258613;22;20194;-86
2023/08/02 00:24:34;;;;;;;9.30;9.00;;;14.60;99.90;;;;;;6258718;22;20198;-86
2023/08/02 00:27:02;;;;;;;9.10;8.80;;;14.60;99.90;;;;;;6258804;22;20202;-85
2023/08/02 00:29:30;;;;;;;9.05;8.75;;;14.70;99.90;;;;;;6259412;22;20201;-86
2023/08/02 00:31:58;;;;;;;9.30;9.00;;;14.70;99.90;;;;;;6259881;22;20190;-86
2023/08/02 00:34:25;;;;;;;9.10;8.80;;;14.70;99.90;;;;;;6259425;22;20736;-86
2023/08/02 00:36:52;;;;;;;9.40;9.10;;;14.70;99.90;;;;;;6259941;22;20206;-86
2023/08/02 00:39:20;;;;;;;9.50;9.20;;;14.70;99.90;;;;;;6259290;22;20272;-86
2023/08/02 00:41:47;;;;;;;9.35;9.05;;;14.70;99.90;;;;;;6259594;22;20213;-86
2023/08/02 00:44:15;;;;;;;9.18;8.88;;;14.70;99.90;;;;;;6262457;22;20257;-86
2023/08/02 00:46:44;;;;;;;9.20;8.90;;;14.70;99.90;;;;;;6261223;22;20229;-86
2023/08/02 00:49:12;;;;;;;9.13;8.82;;;14.70;99.90;;;;;;6259957;22;20206;-85
2023/08/02 00:51:39;;;;;;;8.90;8.70;;;14.60;99.90;;;;;;6258839;22;20202;-86
2023/08/02 00:54:07;;;;;;;8.88;8.65;;;14.50;99.90;;;;;;6258617;22;20213;-86
2023/08/02 00:56:38;;;;;;;8.73;8.52;;;14.50;99.90;;;;;;6259017;22;20202;-86
2023/08/02 00:59:05;;;;;;;8.77;8.57;;;14.50;99.90;;;;;;6258662;22;20186;-85
2023/08/02 01:01:34;;;;;;;8.93;8.65;;;14.50;99.90;;;;;;6258569;22;20202;-86
2023/08/02 01:04:04;;;;;;;8.70;8.50;;;14.60;99.90;;;;;;6258416;22;20248;-85
2023/08/02 01:06:37;;;;;;;8.85;8.65;;;14.60;99.90;;;;;;6258966;22;20244;-85
2023/08/02 01:09:10;;;;;;;8.70;8.50;;;14.60;99.90;;;;;;6258556;22;20194;-85
2023/08/02 01:11:45;;;;;;;8.93;8.67;;;14.50;99.90;;;;;;6258796;22;20205;-85
2023/08/02 01:14:19;;;;;;;8.70;8.50;;;14.50;99.90;;;;;;6258579;22;20275;-85
2023/08/02 01:16:53;;;;;;;9.00;8.70;;;14.50;99.90;;;;;;6259403;22;20214;-86
2023/08/02 01:19:23;;;;;;;8.82;8.63;;;14.50;99.90;;;;;;6259328;22;20212;-85
2023/08/02 01:21:54;;;;;;;8.93;8.65;;;14.50;99.90;;;;;;6258822;22;20194;-85
2023/08/02 01:24:26;;;;;;;9.10;8.80;;;14.50;99.90;;;;;;6259603;22;20284;-85
2023/08/02 01:26:56;;;;;;;8.75;8.55;;;14.40;99.90;;;;;;6267999;22;20989;-85
2023/08/02 01:29:26;;;;;;;9.10;8.80;;;14.40;99.90;;;;;;6280101;22;20201;-86
2023/08/02 01:31:56;;;;;;;8.70;8.50;;;14.40;99.90;;;;;;6272724;22;20225;-86
2023/08/02 01:34:24;;;;;;;8.60;8.40;;;14.40;99.90;;;;;;6260543;22;20198;-85
2023/08/02 01:37:01;;;;;;;8.80;8.60;;;14.30;99.90;;;;;;6259823;22;20194;-85
2023/08/02 01:39:28;;;;;;;8.77;8.57;;;14.30;99.90;;;;;;6261070;22;20193;-86
2023/08/02 01:41:55;;;;;;;8.97;8.70;;;14.20;99.90;;;;;;6259916;22;20190;-85
2023/08/02 01:44:23;;;;;;;8.30;8.10;;;14.20;99.90;;;;;;6260054;22;20237;-85
2023/08/02 01:46:51;;;;;;;8.35;8.15;;;14.20;99.90;;;;;;6260389;22;20203;-86
2023/08/02 01:49:18;;;;;;;8.47;8.27;;;14.20;99.90;;;;;;6260545;22;20198;-86
2023/08/02 01:51:45;;;;;;;8.57;8.37;;;14.10;99.90;;;;;;6258723;22;20288;-87
2023/08/02 01:54:17;;;;;;;8.30;8.10;;;14.10;99.90;;;;;;6258842;22;20207;-86
2023/08/02 01:56:44;;;;;;;8.70;8.50;;;14.10;99.90;;;;;;6258918;22;20198;-84
2023/08/02 01:59:12;;;;;;;8.70;8.50;;;14.10;99.90;;;;;;6262950;22;20205;-85
2023/08/02 02:01:39;;;;;;;8.70;8.50;;;14.10;99.90;;;;;;6266134;22;20225;-84
2023/08/02 02:04:07;;;;;;;8.97;8.67;;;14.10;99.90;;;;;;6259429;22;20217;-84
2023/08/02 02:06:37;;;;;;;8.70;8.50;;;14.10;99.90;;;;;;6259562;22;20198;-85
2023/08/02 02:09:04;;;;;;;8.53;8.33;;;14.10;99.90;;;;;;6259947;22;20191;-84
2023/08/02 02:11:33;;;;;;;9.00;8.70;;;14.00;99.90;;;;;;6259331;22;20190;-85
2023/08/02 02:14:01;;;;;;;8.30;8.10;;;14.00;99.90;;;;;;6266938;22;20195;-84
2023/08/02 02:16:28;;;;;;;8.60;8.40;;;14.00;99.90;;;;;;6275256;22;20202;-84
2023/08/02 02:18:56;;;;;;;8.63;8.43;;;14.00;99.90;;;;;;6269628;22;20198;-86
2023/08/02 02:21:24;;;;;;;8.70;8.50;;;14.00;99.90;;;;;;6260030;22;20190;-86
2023/08/02 02:23:51;;;;;;;8.67;8.47;;;14.00;99.90;;;;;;6259164;22;20186;-85
2023/08/02 02:26:19;;;;;;;8.70;8.50;;;13.90;99.90;;;;;;6258752;22;20221;-85
2023/08/02 02:28:47;;;;;;;8.53;8.33;;;13.90;99.90;;;;;;6258951;22;20198;-85
2023/08/02 02:31:15;;;;;;;8.77;8.57;;;13.80;99.90;;;;;;6258713;22;20688;-86
2023/08/02 02:33:42;;;;;;;8.80;8.50;;;13.80;99.90;;;;;;6258902;22;20214;-86
2023/08/02 02:36:09;;;;;;;8.50;8.30;;;13.70;99.90;;;;;;6261375;22;20225;-85
2023/08/02 02:38:37;;;;;;;8.60;8.40;;;13.70;99.90;;;;;;6260823;22;20191;-85
2023/08/02 02:41:06;;;;;;;8.60;8.40;;;13.60;99.90;;;;;;6260879;22;20194;-85
2023/08/02 02:43:41;;;;;;;8.30;8.10;;;13.60;99.90;;;;;;6259399;22;20206;-85
2023/08/02 02:46:10;;;;;;;8.60;8.40;;;13.50;99.90;;;;;;6259313;22;20208;-86
2023/08/02 02:48:38;;;;;;;8.50;8.30;;;13.60;99.90;;;;;;6258787;22;20202;-85
2023/08/02 02:51:06;;;;;;;8.53;8.33;;;13.50;99.90;;;;;;6258236;22;20252;-86
2023/08/02 02:53:36;;;;;;;8.50;8.30;;;13.50;99.90;;;;;;6258680;22;20210;-86
2023/08/02 02:56:04;;;;;;;8.47;8.27;;;13.50;99.90;;;;;;6258513;22;20278;-86
2023/08/02 02:58:33;;;;;;;8.50;8.30;;;13.50;99.90;;;;;;6259112;22;20202;-86
2023/08/02 03:01:00;;;;;;;8.73;8.53;;;13.50;99.90;;;;;;6259800;22;20233;-85
2023/08/02 03:03:33;;;;;;;8.50;8.30;;;13.50;99.90;;;;;;6259608;22;20277;-85
2023/08/02 03:06:02;;;;;;;8.30;8.10;;;13.60;99.90;;;;;;6258451;22;20277;-86
2023/08/02 03:08:30;;;;;;;8.43;8.23;;;13.60;99.90;;;;;;6258394;22;20218;-85
2023/08/02 03:10:57;;;;;;;8.37;8.17;;;13.60;99.90;;;;;;6260234;22;20211;-86
2023/08/02 03:13:24;;;;;;;8.50;8.30;;;13.60;99.90;;;;;;6262004;22;21034;-86
2023/08/02 03:15:52;;;;;;;8.50;8.30;;;13.60;99.90;;;;;;6261734;22;20202;-87
2023/08/02 03:18:19;;;;;;;8.50;8.30;;;13.50;99.90;;;;;;6275676;22;20209;-79
2023/08/02 03:20:47;;;;;;;8.60;8.40;;;13.60;99.90;;;;;;6282884;22;20221;-78
2023/08/02 03:23:14;;;;;;;8.70;8.50;;;13.60;99.90;;;;;;6284130;22;20201;-79
2023/08/02 03:25:41;;;;;;;9.00;8.70;;;13.60;99.90;;;;;;6284081;22;20198;-78
2023/08/02 03:28:08;;;;;;;9.10;8.80;;;13.60;99.90;;;;;;6283717;22;20193;-79
2023/08/02 03:30:35;;;;;;;9.10;8.80;;;13.60;99.90;;;;;;6284533;22;20232;-78
2023/08/02 03:33:02;;;;;;;9.10;8.80;;;13.50;99.90;;;;;;6284095;22;20320;-79
2023/08/02 03:35:29;;;;;;;9.00;8.70;;;13.60;99.90;;;;;;6283885;22;20296;-78
2023/08/02 03:37:58;;;;;;;8.93;8.63;;;13.50;99.90;;;;;;6284026;22;20268;-79
2023/08/02 03:40:26;;;;;;;9.00;8.70;;;13.50;99.90;;;;;;6284390;22;20197;-79
2023/08/02 03:42:53;;;;;;;9.20;8.90;;;13.50;99.90;;;;;;6290765;22;20233;-78
2023/08/02 03:45:20;;;;;;;9.10;8.80;;;13.50;99.90;;;;;;6285128;22;20194;-78
2023/08/02 03:47:47;;;;;;;9.00;8.70;;;13.50;99.90;;;;;;6285044;22;20667;-78
2023/08/02 03:50:14;;;;;;;9.00;8.70;;;13.50;99.90;;;;;;6284025;22;20201;-79
2023/08/02 03:52:41;;;;;;;8.90;8.60;;;13.50;99.90;;;;;;6284639;22;20193;-79
2023/08/02 03:55:10;;;;;;;9.10;8.80;;;13.50;99.90;;;;;;6284936;22;20212;-78
2023/08/02 03:57:37;;;;;;;8.97;8.67;;;13.50;99.90;;;;;;6284641;22;20198;-79
2023/08/02 04:00:07;;;;;;;8.70;8.50;;;13.50;99.90;;;;;;6284883;22;20196;-79
2023/08/02 04:02:34;;;;;;;9.00;8.70;;;13.50;99.90;;;;;;6284853;22;20233;-79
2023/08/02 04:05:01;;;;;;;8.70;8.50;;;13.50;99.90;;;;;;6285802;22;20202;-79
2023/08/02 04:07:28;;;;;;;8.80;8.60;;;13.50;99.90;;;;;;6287782;22;20700;-78
2023/08/02 04:09:55;;;;;;;9.00;8.70;;;13.50;99.90;;;;;;6287084;22;20201;-79
2023/08/02 04:12:24;;;;;;;8.67;8.47;;;13.50;99.90;;;;;;6287149;22;20227;-79
2023/08/02 04:14:51;;;;;;;9.20;8.90;;;13.50;99.90;;;;;;6285799;22;20590;-79
2023/08/02 04:17:18;;;;;;;9.00;8.70;;;13.50;99.90;;;;;;6295508;22;20205;-79
2023/08/02 04:19:45;;;;;;;8.93;8.67;;;13.60;99.90;;;;;;6315746;22;20236;-78
2023/08/02 04:22:12;;;;;;;8.97;8.67;;;13.60;99.90;;;;;;6316248;22;20208;-79
2023/08/02 04:24:39;;;;;;;8.83;8.60;;;13.60;99.90;;;;;;6316172;22;20323;-79
2023/08/02 04:27:06;;;;;;;8.80;8.60;;;13.60;99.90;;;;;;6316580;22;20200;-79
2023/08/02 04:29:34;;;;;;;8.93;8.70;;;13.70;99.90;;;;;;6315162;22;20196;-78
2023/08/02 04:32:01;;;;;;;8.77;8.53;;;13.70;99.90;;;;;;6315701;22;20197;-79
2023/08/02 04:34:28;;;;;;;8.60;8.40;;;13.80;99.90;;;;;;6324930;22;20211;-78
2023/08/02 04:36:55;;;;;;;8.60;8.40;;;13.80;99.90;;;;;;6321490;22;20240;-78
2023/08/02 04:39:22;;;;;;;8.60;8.40;;;13.80;99.90;;;;;;6319959;22;20220;-78
2023/08/02 04:41:54;;;;;;;8.60;8.40;;;13.80;99.90;;;;;;6320095;22;20197;-77
2023/08/02 04:44:21;;;;;;;8.50;8.30;;;13.90;99.90;;;;;;6316556;22;20195;-79
2023/08/02 04:46:50;;;;;;;8.43;8.23;;;13.90;99.90;;;;;;6316267;22;20201;-78
2023/08/02 04:49:17;;;;;;;8.70;8.50;;;14.00;99.90;;;;;;6315900;22;20245;-79
2023/08/02 04:51:44;;;;;;;8.60;8.40;;;14.00;99.90;;;;;;6315722;22;20203;-79
2023/08/02 04:54:11;;;;;;;9.03;8.77;;;14.00;99.90;;;;;;6316022;22;20204;-78
2023/08/02 04:56:39;;;;;;;9.27;8.97;;;13.90;99.90;;;;;;6315454;22;20211;-79
2023/08/02 04:59:06;;;;;;;8.87;8.67;;;13.90;99.90;;;;;;6315641;22;20193;-78
2023/08/02 05:01:34;;;;;;;9.23;8.93;;;14.00;99.90;;;;;;6317123;22;20239;-79
2023/08/02 05:04:02;;;;;;;9.30;9.00;;;14.00;99.90;;;;;;6316540;22;20212;-79
2023/08/02 05:06:29;;;;;;;8.90;8.70;;;14.00;99.90;;;;;;6315896;22;20229;-78
2023/08/02 05:08:56;;;;;;;9.30;9.00;;;14.10;99.90;;;;;;6316330;22;20231;-78
2023/08/02 05:11:23;;;;;;;9.10;8.80;;;14.00;99.90;;;;;;6315737;22;20244;-79
2023/08/02 05:13:50;;;;;;;9.20;8.90;;;14.10;99.90;;;;;;6315527;22;20275;-79
2023/08/02 05:16:17;;;;;;;9.20;8.90;;;14.10;99.90;;;;;;6315605;22;20267;-79
2023/08/02 05:18:44;;;;;;;9.43;9.13;;;14.20;99.90;;;;;;6316427;22;20208;-78
2023/08/02 05:21:14;;;;;;;9.40;9.10;;;14.20;99.90;;;;;;6315238;22;20275;-78
2023/08/02 05:23:41;;;;;;;9.30;9.00;;;14.30;99.90;;;;;;6319612;22;20197;-77
2023/08/02 05:26:08;;;;;;;8.80;8.60;;;14.30;99.90;;;;;;6318101;22;20268;-78
2023/08/02 05:28:37;;;;;;;9.30;9.00;;;14.30;99.90;;;;;;6315563;22;20205;-78
2023/08/02 05:31:04;;;;;;;9.40;9.10;;;14.40;99.90;;;;;;6314993;22;20197;-78
2023/08/02 05:33:31;;;;;;;9.50;9.20;;;14.40;99.90;;;;;;6314610;22;20267;-78
2023/08/02 05:36:02;;;;;;;9.53;9.23;;;14.40;99.90;;;;;;6316026;22;20197;-79
2023/08/02 05:38:30;;;;;;;9.00;8.80;;;14.50;99.90;;;;;;6314909;22;20204;-78
2023/08/02 05:41:01;;;;;;;8.90;8.70;;;14.50;99.90;;;;;;6315153;22;20204;-78
2023/08/02 05:43:28;;;;;;;9.48;9.18;;;14.60;99.90;;;;;;6315133;22;20193;-78
2023/08/02 05:45:56;;;;;;;8.77;8.57;;;14.70;99.90;;;;;;6315212;22;20201;-78
2023/08/02 05:48:23;;;;;;;9.75;9.45;;;14.70;99.90;;;;;;6315103;22;20201;-78
2023/08/02 05:50:50;;;;;;;9.60;9.30;;;14.70;99.90;;;;;;6314901;22;20207;-77
2023/08/02 05:53:17;;;;;;;9.85;9.55;;;14.80;99.90;;;;;;6315185;22;20189;-79
2023/08/02 05:55:46;;;;;;;9.20;8.90;;;14.80;99.90;;;;;;6315670;22;20231;-78
2023/08/02 05:58:13;;;;;;;9.07;8.80;;;14.80;99.90;;;;;;6317420;22;20203;-78
2023/08/02 06:00:40;;;;;;;9.17;8.87;;;14.90;99.90;;;;;;6316803;22;20193;-78
2023/08/02 06:03:07;;;;;;;9.00;8.77;;;14.90;99.90;;;;;;6317433;22;20266;-78
2023/08/02 06:05:34;;;;;;;8.80;8.60;;;14.90;99.90;;;;;;6316373;22;20193;-78
2023/08/02 06:08:01;;;;;;;8.85;8.65;;;14.90;99.90;;;;;;6316171;22;20283;-78
2023/08/02 06:10:28;;;;;;;9.35;9.05;;;14.90;99.90;;;;;;6315505;22;20624;-77
2023/08/02 06:12:57;;;;;;;9.02;8.80;;;15.00;99.90;;;;;;6321976;22;20204;-78
2023/08/02 06:15:24;;;;;;;9.23;8.93;;;14.90;99.90;;;;;;6316024;22;20197;-77
2023/08/02 06:17:51;;;;;;;9.27;8.98;;;15.00;99.90;;;;;;6314199;22;20208;-78
2023/08/02 06:20:19;;;;;;;9.68;9.38;;;15.00;99.90;;;;;;6314459;22;20196;-77
2023/08/02 06:22:46;;;;;;;9.38;9.07;;;15.10;99.90;;;;;;6314770;22;20269;-78
2023/08/02 06:25:13;;;;;;;9.50;9.20;;;15.20;99.90;;;;;;6316715;22;20242;-78
2023/08/02 06:27:40;;;;;;;9.43;9.13;;;15.30;99.90;;;;;;6315488;22;20237;-78
2023/08/02 06:30:09;;;;;;;9.38;9.07;;;15.30;99.90;;;;;;6315437;22;20204;-78
2023/08/02 06:32:36;;;;;;;9.20;8.90;;;15.30;99.90;;;;;;6315529;22;20224;-78
2023/08/02 06:35:04;;;;;;;9.45;9.15;;;15.40;99.90;;;;;;6316768;22;20283;-78
2023/08/02 06:37:31;;;;;;;9.50;9.20;;;15.40;99.90;;;;;;6316785;22;20295;-78
2023/08/02 06:39:58;;;;;;;9.30;9.00;;;15.40;99.90;;;;;;6315319;22;20211;-79
2023/08/02 06:42:25;;;;;;;9.20;8.90;;;15.40;99.90;;;;;;6315291;22;20248;-79
2023/08/02 06:44:52;;;;;;;8.80;8.60;;;15.50;99.90;;;;;;6315025;22;20227;-78
2023/08/02 06:47:21;;;;;;;9.27;8.98;;;15.50;99.90;;;;;;6315637;22;20249;-79
2023/08/02 06:49:48;;;;;;;9.23;8.93;;;15.50;99.90;;;;;;6315572;22;20236;-77
2023/08/02 06:52:16;;;;;;;9.10;8.80;;;15.50;99.90;;;;;;6315436;22;20280;-78
2023/08/02 06:54:43;;;;;;;9.00;8.77;;;15.60;99.90;;;;;;6315610;22;20193;-79
2023/08/02 06:57:10;;;;;;;9.32;9.02;;;15.60;99.90;;;;;;6314942;22;20200;-79
2023/08/02 06:59:37;;;;;;;9.20;8.90;;;15.60;99.90;;;;;;6315302;22;20279;-78
2023/08/02 07:02:06;;;;;;;8.90;8.70;;;15.60;99.90;;;;;;6320058;22;20217;-78
2023/08/02 07:04:34;;;;;;;8.80;8.60;;;15.60;99.90;;;;;;6321385;22;20208;-78
2023/08/02 07:07:01;;;;;;;9.05;8.80;;;15.70;99.90;;;;;;6319761;22;20211;-78
2023/08/02 07:09:29;;;;;;;9.07;8.80;;;15.70;99.90;;;;;;6317728;22;20197;-78
2023/08/02 07:11:57;;;;;;;9.15;8.85;;;15.70;99.90;;;;;;6315626;22;20203;-78
2023/08/02 07:14:24;;;;;;;8.80;8.60;;;15.70;99.90;;;;;;6315382;22;20189;-78
2023/08/02 07:16:50;;;;;;;8.75;8.55;;;15.70;99.90;;;;;;6314613;22;20211;-77
2023/08/02 07:19:17;;;;;;;8.63;8.43;;;15.70;99.90;;;;;;6315304;22;20189;-78
2023/08/02 07:21:46;;;;;;;8.80;8.60;;;15.70;99.90;;;;;;6314611;22;20205;-78
2023/08/02 07:24:13;;;;;;;8.77;8.57;;;15.80;99.90;;;;;;6315311;22;20197;-78
2023/08/02 07:26:40;;;;;;;9.10;8.80;;;15.80;99.90;;;;;;6315355;22;20211;-78
2023/08/02 07:29:07;;;;;;;8.65;8.45;;;15.90;99.90;;;;;;6315157;22;20193;-79
2023/08/02 07:31:34;;;;;;;8.65;8.45;;;15.90;99.90;;;;;;6315633;22;20228;-78
2023/08/02 07:34:01;;;;;;;8.70;8.50;;;16.00;99.90;;;;;;6315607;22;20208;-78
2023/08/02 07:36:28;;;;;;;8.82;8.63;;;16.00;99.90;;;;;;6314587;22;20295;-79
2023/08/02 07:38:56;;;;;;;8.55;8.35;;;16.10;99.90;;;;;;6315566;22;20200;-77
2023/08/02 07:41:23;;;;;;;8.77;8.57;;;16.10;99.90;;;;;;6314971;22;20200;-78
2023/08/02 07:43:50;;;;;;;9.07;8.80;;;16.20;99.90;;;;;;6315690;22;20250;-78
2023/08/02 07:46:18;;;;;;;8.82;8.63;;;16.20;99.90;;;;;;6315395;22;20225;-78
2023/08/02 07:48:45;;;;;;;9.50;9.20;;;16.30;99.90;;;;;;6315687;22;20192;-78
2023/08/02 07:51:12;;;;;;;8.90;8.70;;;16.30;99.90;;;;;;6315497;22;20196;-78
2023/08/02 07:53:39;;;;;;;9.30;9.00;;;16.30;99.90;;;;;;6322928;22;20197;-78
2023/08/02 07:56:08;;;;;;;8.90;8.70;;;16.40;99.90;;;;;;6318160;22;20251;-78
2023/08/02 07:58:36;;;;;;;9.05;8.77;;;16.40;99.90;;;;;;6319918;22;20209;-78
2023/08/02 08:01:07;;;;;;;9.05;8.80;;;16.50;99.90;;;;;;6327965;22;20275;-77
2023/08/02 08:03:34;;;;;;;9.20;8.90;;;16.50;99.90;;;;;;6328726;22;20193;-77
2023/08/02 08:06:09;;;;;;;8.63;8.43;;;16.50;99.90;;;;;;6328551;22;20196;-77
2023/08/02 08:08:36;;;;;;;8.48;8.27;;;16.50;99.90;;;;;;6327826;22;20197;-77
2023/08/02 08:11:03;;;;;;;8.50;8.30;;;16.50;99.90;;;;;;6327800;22;20225;-78
2023/08/02 08:13:32;;;;;;;8.35;8.15;;;16.40;99.90;;;;;;6327713;22;20224;-78
2023/08/02 08:16:00;;;;;;;8.63;8.43;;;16.40;99.90;;;;;;6327639;22;20209;-78
2023/08/02 08:18:29;;;;;;;8.30;8.10;;;16.30;99.90;;;;;;6325758;22;20216;-78
2023/08/02 08:20:56;;;;;;;8.35;8.15;;;16.30;99.90;;;;;;6326079;22;20192;-78
2023/08/02 08:23:23;;;;;;;8.20;8.00;;;16.30;99.90;;;;;;6327471;22;20197;-78
2023/08/02 08:25:50;;;;;;;8.00;7.80;;;16.30;99.90;;;;;;6326670;22;20193;-78
2023/08/02 08:28:17;;;;;;;8.30;8.10;;;16.30;99.90;;;;;;6327731;22;20209;-78
2023/08/02 08:30:46;;;;;;;8.43;8.23;;;16.20;99.90;;;;;;6325048;22;20193;-78
2023/08/02 08:33:13;;;;;;;8.60;8.40;;;16.20;99.90;;;;;;6327829;22;20201;-78
2023/08/02 08:35:40;;;;;;;8.73;8.52;;;16.20;99.90;;;;;;6329563;22;20211;-78
2023/08/02 08:38:07;;;;;;;8.80;8.60;;;16.20;99.90;;;;;;6327488;22;20209;-78
2023/08/02 08:40:34;;;;;;;7.90;7.70;;;16.20;99.90;;;;;;6325355;22;20212;-78
2023/08/02 08:43:01;;;;;;;7.95;7.75;;;16.20;99.90;;;;;;6318205;22;20204;-78
2023/08/02 08:45:30;;;;;;;8.05;7.85;;;16.20;99.90;;;;;;6323441;22;20288;-78
2023/08/02 08:47:59;;;;;;;8.15;7.95;;;16.20;99.90;;;;;;6317095;22;20245;-78
2023/08/02 08:50:28;;;;;;;8.07;7.88;;;16.20;99.90;;;;;;6316825;22;20228;-79
2023/08/02 08:52:59;;;;;;;7.95;7.75;;;16.20;99.90;;;;;;6315503;22;20239;-78
2023/08/02 08:55:29;;;;;;;8.07;7.88;;;16.20;99.90;;;;;;6315601;22;20225;-78
2023/08/02 08:57:56;;;;;;;8.32;8.13;;;16.20;99.90;;;;;;6315533;22;20204;-78
2023/08/02 09:00:23;;;;;;;7.90;7.70;;;16.30;99.90;;;;;;6315991;22;20188;-78
2023/08/02 09:02:52;;;;;;;7.60;7.40;;;16.40;99.90;;;;;;6315560;22;20277;-78
2023/08/02 09:05:21;;;;;;;7.78;7.57;;;16.40;99.90;;;;;;6316719;22;20193;-78
2023/08/02 09:07:48;;;;;;;8.20;8.00;;;16.30;99.90;;;;;;6318140;22;20228;-77
2023/08/02 09:10:15;;;;;;;8.55;8.35;;;16.40;99.90;;;;;;6317818;22;20188;-78
2023/08/02 09:12:46;;;;;;;8.40;8.20;;;16.30;99.90;;;;;;6315770;22;20279;-78
2023/08/02 09:15:15;;;;;;;8.07;7.88;;;16.30;99.90;;;;;;6316690;22;20200;-78
2023/08/02 09:21:26;;;;;;;;;;;;;;;;;;;;;
2023/08/02 09:25:07;;;;;;;;;;;;;;;;;;;;;
2023/08/02 09:28:25;;;;;;;8.00;7.80;;;16.50;99.90;;;;;;6270464;22;20204;-91
2023/08/02 09:45:05;;;;;;;8.70;8.50;;;16.60;99.90;;;;;;6198276;22;20215;-91
2023/08/02 09:58:53;;;;;;;8.40;8.20;;;16.80;99.90;;;;;;6126644;23;20232;-90
2023/08/02 10:08:58;;;;;;;;;;;;;;;;;;;;;
2023/08/02 10:12:19;;;;;;;;;;;;;;;;;;;;;
2023/08/02 10:15:40;;;;;;;;;;;;;;;;;;;;;
2023/08/02 10:18:47;;;;;;;8.13;7.93;;;16.70;99.90;;;;;;6136682;23;20239;-91
2023/08/02 10:21:33;;;;;;;8.00;7.80;;;16.70;99.90;;;;;;6290680;22;20194;-91
2023/08/02 10:24:12;;;;;;;7.90;7.70;;;16.70;99.90;;;;;;6290852;22;20204;-90
2023/08/02 10:27:48;;;;;;;;;;;;;;;;;;;;;
2023/08/02 15:19:37;;;;;;;7.10;6.90;;;18.10;99.90;;;;;;6249806;22;20205;-79
2023/08/02 15:22:04;;;;;;;6.70;6.50;;;18.10;99.90;;;;;;6257703;22;20273;-79
2023/08/02 15:24:31;;;;;;;6.78;6.57;;;18.20;99.90;;;;;;6257555;22;20277;-79
2023/08/02 15:26:58;;;;;;;7.10;6.90;;;18.20;99.90;;;;;;6271537;22;20206;-78
2023/08/02 15:29:26;;;;;;;6.88;6.68;;;18.20;99.90;;;;;;6268294;22;20198;-78
2023/08/02 15:31:53;;;;;;;6.72;6.53;;;18.20;99.90;;;;;;6265457;22;20194;-79
2023/08/02 15:34:20;;;;;;;6.80;6.60;;;18.10;99.90;;;;;;6259879;22;20198;-78
2023/08/02 15:36:49;;;;;;;6.70;6.50;;;18.10;99.90;;;;;;6259902;22;20289;-79
2023/08/02 15:39:16;;;;;;;6.78;6.57;;;18.10;99.90;;;;;;6264771;22;20257;-79
2023/08/02 15:41:43;;;;;;;6.57;6.38;;;18.10;99.90;;;;;;6264970;22;20229;-78
2023/08/02 15:44:10;;;;;;;6.40;6.20;;;18.10;99.90;;;;;;6262624;22;20276;-79
2023/08/02 15:46:37;;;;;;;6.50;6.30;;;18.10;99.90;;;;;;6261772;22;20213;-79
2023/08/02 15:49:04;;;;;;;6.50;6.30;;;18.10;99.90;;;;;;6260522;22;20561;-79
2023/08/02 15:51:31;;;;;;;6.78;6.57;;;18.10;99.90;;;;;;6263071;22;20201;-80
2023/08/02 15:54:00;;;;;;;6.10;6.00;;;18.10;99.90;;;;;;6260953;22;20233;-79
2023/08/02 15:56:27;;;;;;;6.18;6.00;;;18.10;99.90;;;;;;6259355;22;20197;-79
2023/08/02 15:58:54;;;;;;;6.40;6.20;;;18.20;99.90;;;;;;6261433;22;20205;-79
2023/08/02 16:01:22;;;;;;;6.30;6.10;;;18.20;99.90;;;;;;6260525;22;20198;-79
2023/08/02 16:03:49;;;;;;;6.32;6.13;;;18.20;99.90;;;;;;6259848;22;20240;-79
2023/08/02 16:06:16;;;;;;;6.38;6.18;;;18.20;99.90;;;;;;6259810;22;20198;-79
2023/08/02 16:08:44;;;;;;;6.32;6.13;;;18.20;99.90;;;;;;6259583;22;20220;-79
2023/08/02 16:11:13;;;;;;;6.53;6.32;;;18.20;99.90;;;;;;6258513;22;20281;-80
2023/08/02 16:13:40;;;;;;;6.40;6.20;;;18.30;99.90;;;;;;6258617;22;20210;-80
2023/08/02 16:16:07;;;;;;;6.50;6.30;;;18.30;99.90;;;;;;6261154;22;20212;-79
2023/08/02 16:18:34;;;;;;;6.57;6.38;;;18.30;99.90;;;;;;6258579;22;20209;-79
2023/08/02 16:21:02;;;;;;;6.50;6.30;;;18.30;99.90;;;;;;6258227;22;20197;-79
2023/08/02 16:23:29;;;;;;;6.65;6.45;;;18.30;99.90;;;;;;6258345;22;20189;-79
2023/08/02 16:25:56;;;;;;;6.70;6.50;;;18.30;99.90;;;;;;6258084;22;20194;-79
2023/08/02 16:28:25;;;;;;;6.20;6.00;;;18.30;99.90;;;;;;6266319;22;20218;-77
2023/08/02 16:30:52;;;;;;;6.30;6.10;;;18.30;99.90;;;;;;6266138;22;20198;-77
2023/08/02 16:33:19;;;;;;;6.30;6.10;;;18.50;99.90;;;;;;6277255;22;20246;-78
2023/08/02 16:35:47;;;;;;;6.50;6.30;;;18.60;99.90;;;;;;6281214;22;20261;-78
2023/08/02 16:38:14;;;;;;;6.40;6.20;;;18.60;99.90;;;;;;6273012;22;20210;-77
2023/08/02 16:40:43;;;;;;;5.82;5.72;;;18.70;99.90;;;;;;6262964;22;20219;-78
2023/08/02 16:43:10;;;;;;;5.60;5.50;;;19.00;99.90;;;;;;6261248;22;20197;-78
2023/08/02 16:45:39;;;;;;;5.80;5.70;;;19.30;99.90;;;;;;6259149;22;20258;-78
2023/08/02 16:48:06;;;;;;;6.00;5.90;;;19.70;99.90;;;;;;6258021;22;20237;-78
2023/08/02 16:50:34;;;;;;;6.15;6.00;;;20.10;99.90;;;;;;6256474;22;20202;-77
2023/08/02 16:53:01;;;;;;;6.40;6.20;;;20.40;99.90;;;;;;6258334;22;20210;-78
2023/08/02 16:55:28;;;;;;;6.90;6.70;;;20.80;99.90;;;;;;6259150;22;20225;-77
2023/08/02 16:57:55;;;;;;;7.00;6.80;;;21.00;99.90;;;;;;6259377;22;20238;-78
2023/08/02 17:00:22;;;;;;;7.00;6.80;;;21.10;99.90;;;;;;6256153;22;20217;-77
2023/08/02 17:02:51;;;;;;;6.80;6.60;;;21.00;99.90;;;;;;6255883;22;20214;-78
2023/08/02 17:05:18;;;;;;;6.50;6.30;;;20.90;99.90;;;;;;6255354;22;20221;-79
2023/08/02 17:07:46;;;;;;;6.50;6.30;;;20.70;99.90;;;;;;6255627;22;20297;-78
2023/08/02 17:10:13;;;;;;;6.53;6.32;;;20.60;99.90;;;;;;6255877;22;20273;-78
2023/08/02 17:12:40;;;;;;;6.57;6.38;;;20.50;99.90;;;;;;6255459;22;20226;-78
2023/08/02 17:15:09;;;;;;;6.50;6.30;;;20.40;99.90;;;;;;6256047;22;20289;-77
2023/08/02 17:17:36;;;;;;;6.28;6.07;;;20.30;99.90;;;;;;6255546;22;20200;-78
2023/08/02 17:20:09;;;;;;;6.32;6.13;;;20.20;99.90;;;;;;6255689;22;20187;-78
2023/08/02 17:22:36;;;;;;;6.30;6.10;;;20.20;99.90;;;;;;6255527;22;20194;-79
2023/08/02 17:25:03;;;;;;;6.40;6.20;;;20.10;99.90;;;;;;6268483;22;20196;-78
2023/08/02 17:27:30;;;;;;;6.38;6.18;;;20.00;99.90;;;;;;6262063;22;20194;-78
2023/08/02 17:29:57;;;;;;;6.60;6.40;;;20.00;99.90;;;;;;6261070;22;20202;-77
2023/08/02 17:32:25;;;;;;;6.40;6.20;;;19.90;99.90;;;;;;6263742;22;20210;-79
2023/08/02 17:34:52;;;;;;;6.50;6.30;;;19.90;99.90;;;;;;6256684;22;20214;-79
2023/08/02 17:37:20;;;;;;;6.70;6.50;;;19.80;99.90;;;;;;6256115;22;20226;-78
2023/08/02 17:39:53;;;;;;;6.70;6.50;;;19.80;99.90;;;;;;6255050;22;20256;-79
2023/08/02 17:42:20;;;;;;;6.25;6.07;;;19.70;99.90;;;;;;6255485;22;20594;-78
2023/08/02 17:44:47;;;;;;;6.13;6.00;;;19.70;99.90;;;;;;6255546;22;20255;-78
2023/08/02 17:47:14;;;;;;;6.30;6.10;;;19.70;99.90;;;;;;6255688;22;20218;-79
2023/08/02 17:49:41;;;;;;;6.38;6.18;;;19.70;99.90;;;;;;6255743;22;20226;-78
2023/08/02 17:52:08;;;;;;;6.10;6.00;;;19.60;99.90;;;;;;6257663;22;20281;-77
2023/08/02 17:54:37;;;;;;;6.38;6.18;;;19.60;99.90;;;;;;6260189;22;20266;-78
2023/08/02 17:57:05;;;;;;;6.70;6.50;;;19.60;99.90;;;;;;6260656;22;20229;-78
2023/08/02 17:59:32;;;;;;;6.50;6.30;;;19.60;99.90;;;;;;6260833;22;20202;-79
2023/08/02 18:01:59;;;;;;;6.70;6.50;;;19.60;99.90;;;;;;6259041;22;20297;-78
2023/08/02 18:04:26;;;;;;;6.53;6.32;;;19.60;99.90;;;;;;6257195;22;20190;-79
2023/08/02 18:06:53;;;;;;;6.50;6.30;;;19.70;99.90;;;;;;6256993;22;20201;-79
2023/08/02 18:09:20;;;;;;;6.70;6.50;;;19.70;99.90;;;;;;6260726;22;20198;-78
2023/08/02 18:11:49;;;;;;;6.70;6.50;;;19.70;99.90;;;;;;6257149;22;20210;-78
2023/08/02 18:14:16;;;;;;;6.38;6.18;;;19.70;99.90;;;;;;6259188;22;20197;-79
2023/08/02 18:16:43;;;;;;;6.47;6.28;;;19.70;99.90;;;;;;6266025;22;20194;-78
2023/08/02 18:19:10;;;;;;;6.50;6.30;;;19.70;99.90;;;;;;6257961;22;20237;-80
2023/08/02 18:21:37;;;;;;;6.60;6.40;;;19.70;99.90;;;;;;6256229;22;20282;-77
2023/08/02 18:24:05;;;;;;;6.57;6.38;;;19.70;99.90;;;;;;6256578;22;20285;-79
2023/08/02 18:26:32;;;;;;;6.43;6.22;;;19.70;99.90;;;;;;6267131;22;20289;-78
2023/08/02 18:29:00;;;;;;;6.25;6.10;;;19.70;99.90;;;;;;6261999;22;20212;-79